AREA preflight bulletin
Updated "live" 20 Jul 2019, 01:12

back to the map




METAR og TAF


NUUK
  AKTUEL BGGH 200050Z 19004KT 9999 FEW150 BKN220 07/06 Q1013=
  TAF 9 timer BGGH 192314Z 2000/2006 20006KT 9999 FEW015 BKN150 TEMPO 2000/2006 BKN004=

KANGERLUSSUAQ
  AKTUEL BGSF 200050Z 05007KT 9999 -RA SCT070 OVC150 09/05 Q1013=
  TAF 24 timer BGSF 192252Z 2000/2106 VRB08KT 9999 FEW060 BKN120 TEMPO 2000/2012 -RA BKN020 TEMPO 2012/2106 BKN060=

KULUSUK
  AKTUEL BGKK 200050Z AUTO 25007KT 9999NDV NCD 07/05 Q1012=
  TAF 9 timer BGKK 191413Z 1915/1919 VRB05KT 8000 BCFG SCT004 TEMPO 1915/1919 1200 BKN004=

NERLERIT INAAT
  AKTUEL BGCO 200050Z AUTO 32003KT //// NCD 06/03 Q1010=
  TAF 9 timer BGCO 191156Z 1912/1916 15008KT 9999 FEW200=

KEFLAVIK
  AKTUEL BIKF 200100Z 03010KT 9999 FEW020 11/10 Q1004=
  TAF 24 timer BIKF 200100Z 2003/2103 03008KT 9999 FEW020 SCT050 TX16/2015Z TN10/2005Z PROB40 TEMPO 2016/2021 SHRA BKN020CB=

REYKJAVIK
  AKTUEL BIRK 200100Z VRB02KT 9999 FEW038 BKN100 13/07 Q1004=
  TAF 24 timer BIRK 200100Z 2003/2103 09005KT 9999 BKN040 TX18/2017Z TN11/2004Z BECMG 2012/2014 30010KT TEMPO 2016/2021 SHRA BKN020CB=

AKUREYRI
  AKTUEL BIAR 200106Z 30006KT 9999 SCT005 BKN010 OVC015 09/08 Q1007=
  TAF 24 timer BIAR 200100Z 2003/2103 35008KT 9999 -RA SCT010 OVC020 TX14/2015Z TN08/2004Z TEMPO 2003/2009 5000 RADZ BR BKN007 OVC012 BECMG 2010/2012 SCT020 OVC030=


SIGMETS:

Ingen SIGMET fundet:

NOTAM/SNOWTAM for operationel use has to be confirmed with the
nearest AIS Briefing Office prior to a flight.

ICAO
BGGH (NUUK)

FIR
BGGL

Notam_id:
BGB0070/19

valid from:
1901311908

E) BGGH AFIS FREQ 119.100 MHZ NO COVERAGE IN SECTOR BETWEEN 060 DEG MAG AND 210 DEG MAG BELOW FL100.

valid to:
1907311900EST


Replacing:
BGB0786/18

ICAO
BGGH (NUUK)

FIR
BGGL

Notam_id:
BGB0499/19

valid from:
1907111317

E) ERROR IN CHART FOR RNAV (GNSS) APPROACH RWY 23. WITH REF AIP GREENLAND AD 2-BGGH RNAV (GNSS) RWY 23-1. NEW OCA(H) LNAV/VNAV CLIMB 2.5 PERCENT CAT A TO READ 1310 (1029) INSTEAD OF 1230. NEW OCA(H) LNAV/VNAV CLIMB 2.5 PERCENT CAT B TO READ 1340 (1059) INSTEAD OF 1250. NEW OCA(H) LNAV/VNAV CLIMB 5.0 PERCENT CAT A TO READ 1300 (1019) INSTEAD OF 1070. NEW OCA(H) LNAV/VNAV CLIMB 5.0 PERCENT CAT B TO READ 1320 (1039) INSTEAD OF 1110. NEW OCA(H) LNAV CLIMB 5.0 PERCENT CAT A TO READ 1150 (869) IN-STEAD OF 1130. NEW OCA(H) LNAV CLIMB 5.0 PERCENT CAT B TO READ 1240 (959) INSTEAD OF 1230.

valid to:
1909112359


Replacing:
BGB0930/17

ICAO
BGGH (NUUK)

FIR
BGGL

Notam_id:
BGB0502/19

valid from:
1907151323

E) PAPI RWY 05 LEFT SIDE SHOWING INCORRECT ANGLE.

valid to:
1907291400EST


Replacing:
BGB0475/19

ICAO
BGGH (NUUK)

FIR
BGGL

Notam_id:
BGB0446/19

valid from:
1906241209

E) STAND 3 AND 4 CAN NOT RUN 2 HEATERS SIMULTANEOUSLY WHILE RUNNING 2 GPU'S.

valid to:
1908011200EST


Replacing:
BGB0444/19

ICAO
BGGH (NUUK)

FIR
BGGL

Notam_id:
BGB0358/19

valid from:
1905151005

E) FIREFIGHTING AND RESCUE LIMITED TO: CAT5 PPR 3 HR BEFORE LANDING OR DEPARTURE FOR ALL TRAFFIC OVER 10 TONS AND ABOVE 19 PASSENGERS, EXCEPT SCHEDULED TRAFFIC.

valid to:
PERM


Replacing:
BGB0350/19

ICAO
BGGH (NUUK)

FIR
BGGL

Notam_id:
BGB0503/19

valid from:
1909120000

E) TRIGGER NOTAM - PERM AIP AIRAC AMDT 06/19 WEF 12 SEP 2019. IAC RNAV (GNSS) RWY 23 RENAMED TO RNP RWY 23 AND PROCEDURE UPDATED (E.G. VARIATION CHANGED, WAYPOINTS GHT23 AND GHM23 WITHDRAWN, NEW WAYPOINTS ADDED.).

valid to:
1909252359




ICAO
BGGH (NUUK)

FIR
BGGL

Notam_id:
BGB0448/19

valid from:
1908150000

E) TRIGGER NOTAM - PERM AIP AIRAC AMDT 05/19 WEF 15 AUG 2019. CHANGES TO RESCUE AND FIRE FIGHTING SERVICE.

valid to:
1908282359




ICAO
BGSF (KANGERLUSSUAQ)

FIR
BGGL

Notam_id:
BGA0314/19

valid from:
1908150000

E) TRIGGER NOTAM - PERM AIP AIRAC AMDT 05/19 WEF 15 AUG 2019. NEW REMARK CONCERNING PCN.

valid to:
1908282359




ICAO
BGKK (KULUSUK)

FIR
BGGL

Notam_id:
BGB0491/19

valid from:
1907081858

E) LOC DA OBST LIGHTS LIL F R OUT OF SERVICE. PSN 653413N0371225W.

valid to:
1908311900EST


Replacing:
BGB0407/19

ICAO
BGKK (KULUSUK)

FIR
BGGL

Notam_id:
BGB0740/17

valid from:
1709221803

E) PAPI RWY 11 ANGLE CHANGED TO 3.40 DEG.

valid to:
PERM




ICAO
BGCO (NERLERIT INAAT)

FIR
BGGL

Notam_id:
BGB0806/18

valid from:
1810100954

E) SEA RESCUE NOT AVAILABLE.

valid to:
1908151600


Replacing:
BGB0659/18

ICAO
BGGL (SONDRESTROM FIR)

FIR
BGGL

Notam_id:
BGA0333/19

valid from:
1907010453

E) CHECKLIST YEAR=2017 0269 YEAR=2018 0199 YEAR=2019 0264 0282 0302 0313 0314 0316 0323 0329 0330 LATEST PUBLICATIONS AIP AIRAC AMDT IFR 005/2019 EFFECTIVE DATE 15 AUG 19 AIP AMDT IFR 003/2018 EFFECTIVE DATE 15 MAR 18 AIP SUP IFR 001/2019 EFFECTIVE DATE 06 JUN 19 AIC IFR A001/2019 EFFECTIVE DATE 17 JAN 19

valid to:
1908010453EST


Replacing:
BGA0278/19

ICAO
BGGL (SONDRESTROM FIR)

FIR
BGGL

Notam_id:
BGB0467/19

valid from:
1907010453

E) CHECKLIST YEAR=2017 0740 0930 YEAR=2018 0806 0811 YEAR=2019 0070 0145 0195 0207 0214 0243 0298 0299 0358 0394 0407 0416 0419 0433 0434 0435 0436 0437 0438 0446 0448 0450 0454 0460 0462 LATEST PUBLICATIONS AIP AIRAC AMDT IFR 005/2019 EFFECTIVE DATE 15 AUG 19 AIP AMDT IFR 003/2018 EFFECTIVE DATE 15 MAR 18 AIP SUP IFR 001/2019 EFFECTIVE DATE 06 JUN 19 AIC IFR A001/2019 EFFECTIVE DATE 17 JAN 19

valid to:
1908010453EST


Replacing:
BGB0405/19

ICAO
BGGL (SONDRESTROM FIR)

FIR
BGGL

Notam_id:
BGC0060/19

valid from:
1907010453

E) CHECKLIST YEAR=2018 0079 0081 YEAR=2019 0014 0015 0016 0017 0045 0046 0047 0049 0050 0051 0059 LATEST PUBLICATIONS AIP AIRAC AMDT IFR 005/2019 EFFECTIVE DATE 15 AUG 19 AIP AMDT IFR 003/2018 EFFECTIVE DATE 15 MAR 18 AIP SUP IFR 001/2019 EFFECTIVE DATE 06 JUN 19 AIC IFR A001/2019 EFFECTIVE DATE 17 JAN 19

valid to:
1908010453EST


Replacing:
BGC0053/19

ICAO
BGGL (SONDRESTROM FIR)

FIR
BGGL

Notam_id:
BGB0488/19

valid from:
1907072213

D) DAILY 0800-2200


E) TEMPORARY RESTRICTED AREA DUE TO DRONE ACTIVITY ACTIVATED. REF AIP SUP 01/19 PUBLISHED 06 JUN 2019. LATERAL LIMITS: 7551N03654W 7551N03506W 7524N03506W 7524N03654W. F) GND G) 14500FT AMSL

valid to:
1908092200


Replacing:
BGB0419/19

ICAO
BGGL (SONDRESTROM FIR)

FIR
BGGL

Notam_id:
BGA0363/19

valid from:
1909120000

E) TRIGGER NOTAM - PERM AIP AIRAC AMDT 06/19 WEF 12 SEP 2019. REF ENR 4.5: ABN KANGERSUATSIAQ ADDED AND CHANGES IN LOCATION/REMARKS AT SEVERAL ABN.

valid to:
1909252359




ICAO
BGGL (SONDRESTROM FIR)

FIR
BGGL

Notam_id:
BGA0199/18

valid from:
1805310935

E) GREENLAND AND ADJACENT WATERS ARE CONSIDERED HOSTILE AREAS BY THE CIVIL AVIATION AUTHORITY (TBST). THREE MAJOR REASONS CONTRIBUTE TO DEFINING THE AREA AS HOSTILE: A SAFE FORCED LANDING CANNOT BE ACCOMPLISHED BECAUSE THE SURFACE IS INADEQUATE. THE HELICOPTER OCCUPANTS CANNOT BE ADEQUATELY PROTECTED FROM THE ELEMENTS. SEARCH AND RESCUE RESPONSE/CAPABILITY ARE NOT PROVIDED CONSISTENT WITH ANTICIPATED EXPOSURE.

valid to:
PERM




ICAO
BIKF (KEFLAVIK)

FIR
BIRD

Notam_id:
BIA0202/19

valid from:
1906182359

E) STOP BARS NOT IN USE. REF: AIP ICELAND BIKF AD 2.23.6 AND BIKF AD 2.24.1.2-1 WITH THE EFFECTIVE 20 JUN.

valid to:
1909172359




ICAO
BIKF (KEFLAVIK)

FIR
BIRD

Notam_id:
BIA0279/19

valid from:
1907041001

E) FLIGHT PLAN REQUIREMENTS FOR AIRCRAFT DEPARTING FROM KEFLAVIK. NEW ROUTE ADDED. KEFLAVIK SOUTHEASTBOUND DEPARTURES TO DESTINATIONS WEST OF 010W MAY FILE VIA RIMUM CELLO 60N019W. REF: AIP ICELAND ENR 1.8.4.1.3.7

valid to:
1908152359


Replacing:
BIA0272/19

ICAO
BIKF (KEFLAVIK)

FIR
BIRD

Notam_id:
BIA0171/19

valid from:
1905242359

E) PILOTS INTENDING TO USE KEFLAVIK AIRPORT ARE ADVISED THAT DUE TO HIGH TRAFFIC VOLUME DURING PEAK HOURS, TRAINING FLIGHTS ARE RESTRICTED, SEE BIKF AD 2.20.7. RESTRICTIONS ARE NOW AS FOLLOWS: TRAINING FLIGHTS PERFORMING TOUCH AND GOES AND/OR LOW APPROACHES ARE NOT PERMITTED DURING FOLLOWING TIME PERIODS: FROM 06:00 TO 10:00 AND FROM 15:00 TO 18:00. LANDING AND TAKE OFFS OF AIRCRAFT THAT HAVE NOT RECEIVED A SLOT IN ACCORDANCE WITH AIP ICELAND BIKF AD 2.20.1 ARE NOT PERMITTED DURING FOLLOWING TIME PERIODS: FROM 06:00 TO 08:00 AND FROM 15:00 TO 16:30. IFR AND VFR TRAINING FLIGHTS IN KEFLAVIK APPROACH CONTROL AREA ARE NOT PERMITTED DURING FOLLOWING TIME PERIODS (FLYING TO OR FROM KEFLAVIK AIRPORT IS ALLOWED) : FROM 06:00 TO 10:30 AND FROM 14:30 TO 18:00. F) SFG G) FL245

valid to:
1908152359


Replacing:
BIA0170/19

ICAO
BIRK (REYKJAVIK)

FIR
BIRD

Notam_id:
BIA0276/19

valid from:
1905281227

E) GF LOCATOR 319 KHZ UNSERVICEABLE, DUE TO MAINTENANCE. REF: AIP BIRK AD 2.19.

valid to:
1908011600




ICAO
BIRK (REYKJAVIK)

FIR
BIRD

Notam_id:
BIA0167/19

valid from:
1905211310

E) CRANE ERECTED 1334M NORTH OF THRESHOLD RWY19 AND 24M WEST OF EXTENDED CENTERLINE RWY 19. BOOM LENGTH IS 36M, ELEVATION 125 FEET. OBSTRUCTION IS LIT WITH OBS LGT. POSITION: 640852.35000N 0215629.74200W

valid to:
1908082359


Replacing:
BIA0147/19

ICAO
BIRK (REYKJAVIK)

FIR
BIRD

Notam_id:
BIA0166/19

valid from:
1905211200

E) CRANE ERECTED 882M SOUTH OF THRESHOLD RWY 01 AND 103M WEST OF EXTENDED CENTRELINE RWY 01. BOOM LENGTH IS 36M, ELEVATION 102 FEET. OBSTRUCTION IS LIT WITH OBS LGT. POSITION: 640652.96848N 0215612.98891W.

valid to:
1908211200




ICAO
BIRK (REYKJAVIK)

FIR
BIRD

Notam_id:
BIA0165/19

valid from:
1905211200

E) CRANE ERECTED 859M SOUTH OF THRESHOLD RWY 01 AND 53M WEST OF EXTENDED CENTRELINE RWY 01. BOOM LENGTH IS 60M, ELEVATION 102 FEET. OBSTRUCTION IS LIT WITH OBS LGT. POSITION: 640653.87832N 0215607.87308W

valid to:
1908211200




ICAO
BIAR (AKUREYRI)

FIR
BIRD

Notam_id:
BIA0264/19

valid from:
1906281029

E) HANDLING NOW H24 AT BIAR AIRPORT REF AIP: BIAR AD 2.3

valid to:
1908152359


Replacing:
BIA0263/19

ICAO
BIAR (AKUREYRI)

FIR
BIRD

Notam_id:
BIA0156/19

valid from:
1905161545

E) FREQUENCY 118.7 IS INOP. REF: AIP ICELAND BIAR AD 2.18.

valid to:
1908152359





Copyright Naviair   2003-2016